sensor_id;sensor_type;location;lat;lon;timestamp;temperature;humidity
45409;DHT22;31162;51.076;3.784;2024-01-16T00:00:15;3.40;99.90
45409;DHT22;31162;51.076;3.784;2024-01-16T00:02:40;3.30;99.90
45409;DHT22;31162;51.076;3.784;2024-01-16T00:05:06;3.30;99.90
45409;DHT22;31162;51.076;3.784;2024-01-16T00:07:32;3.30;99.90
45409;DHT22;31162;51.076;3.784;2024-01-16T00:10:00;3.30;99.90
45409;DHT22;31162;51.076;3.784;2024-01-16T00:12:25;3.10;99.90
45409;DHT22;31162;51.076;3.784;2024-01-16T00:14:51;3.00;99.90
45409;DHT22;31162;51.076;3.784;2024-01-16T00:17:16;2.80;99.90
45409;DHT22;31162;51.076;3.784;2024-01-16T00:19:42;2.70;99.90
45409;DHT22;31162;51.076;3.784;2024-01-16T00:22:08;2.60;99.90
45409;DHT22;31162;51.076;3.784;2024-01-16T00:24:33;2.60;99.90
45409;DHT22;31162;51.076;3.784;2024-01-16T00:26:59;2.50;99.90
45409;DHT22;31162;51.076;3.784;2024-01-16T00:29:24;2.40;99.90
45409;DHT22;31162;51.076;3.784;2024-01-16T00:31:50;2.40;99.90
45409;DHT22;31162;51.076;3.784;2024-01-16T00:34:16;2.40;99.90
45409;DHT22;31162;51.076;3.784;2024-01-16T00:36:42;2.20;99.90
45409;DHT22;31162;51.076;3.784;2024-01-16T00:39:07;2.30;99.90
45409;DHT22;31162;51.076;3.784;2024-01-16T00:41:33;2.10;99.90
45409;DHT22;31162;51.076;3.784;2024-01-16T00:43:59;2.00;99.90
45409;DHT22;31162;51.076;3.784;2024-01-16T00:46:24;1.90;99.90
45409;DHT22;31162;51.076;3.784;2024-01-16T00:48:50;1.80;99.90
45409;DHT22;31162;51.076;3.784;2024-01-16T00:51:15;2.00;99.90
45409;DHT22;31162;51.076;3.784;2024-01-16T00:53:42;1.80;99.90
45409;DHT22;31162;51.076;3.784;2024-01-16T00:56:07;1.70;99.90
45409;DHT22;31162;51.076;3.784;2024-01-16T00:58:33;1.70;99.90
45409;DHT22;31162;51.076;3.784;2024-01-16T01:00:59;1.90;99.90
45409;DHT22;31162;51.076;3.784;2024-01-16T01:03:25;1.70;99.90
45409;DHT22;31162;51.076;3.784;2024-01-16T01:05:50;1.70;99.90
45409;DHT22;31162;51.076;3.784;2024-01-16T01:08:16;1.60;99.90
45409;DHT22;31162;51.076;3.784;2024-01-16T01:10:42;1.60;99.90
45409;DHT22;31162;51.076;3.784;2024-01-16T01:13:08;1.50;99.90
45409;DHT22;31162;51.076;3.784;2024-01-16T01:15:33;1.50;99.90
45409;DHT22;31162;51.076;3.784;2024-01-16T01:17:59;1.50;99.90
45409;DHT22;31162;51.076;3.784;2024-01-16T01:20:24;1.40;99.90
45409;DHT22;31162;51.076;3.784;2024-01-16T01:22:51;1.40;99.90
45409;DHT22;31162;51.076;3.784;2024-01-16T01:25:16;1.40;99.90
45409;DHT22;31162;51.076;3.784;2024-01-16T01:27:42;1.40;99.90
45409;DHT22;31162;51.076;3.784;2024-01-16T01:30:08;1.40;99.90
45409;DHT22;31162;51.076;3.784;2024-01-16T01:32:37;1.40;99.90
45409;DHT22;31162;51.076;3.784;2024-01-16T01:35:03;1.40;99.90
45409;DHT22;31162;51.076;3.784;2024-01-16T01:37:29;1.40;99.90
45409;DHT22;31162;51.076;3.784;2024-01-16T01:39:55;1.30;99.90
45409;DHT22;31162;51.076;3.784;2024-01-16T01:42:20;1.40;99.90
45409;DHT22;31162;51.076;3.784;2024-01-16T01:44:47;1.40;99.90
45409;DHT22;31162;51.076;3.784;2024-01-16T01:47:13;1.50;99.90
45409;DHT22;31162;51.076;3.784;2024-01-16T01:49:38;1.40;99.90
45409;DHT22;31162;51.076;3.784;2024-01-16T01:52:05;1.50;99.90
45409;DHT22;31162;51.076;3.784;2024-01-16T01:54:33;1.50;99.90
45409;DHT22;31162;51.076;3.784;2024-01-16T01:57:01;1.50;99.90
45409;DHT22;31162;51.076;3.784;2024-01-16T01:59:27;1.30;99.90
45409;DHT22;31162;51.076;3.784;2024-01-16T02:01:55;1.40;99.90
45409;DHT22;31162;51.076;3.784;2024-01-16T02:04:21;1.40;99.90
45409;DHT22;31162;51.076;3.784;2024-01-16T02:06:47;1.50;99.90
45409;DHT22;31162;51.076;3.784;2024-01-16T02:09:13;1.50;99.90
45409;DHT22;31162;51.076;3.784;2024-01-16T02:11:42;1.30;99.90
45409;DHT22;31162;51.076;3.784;2024-01-16T02:14:09;1.40;99.90
45409;DHT22;31162;51.076;3.784;2024-01-16T02:16:39;1.50;99.90
45409;DHT22;31162;51.076;3.784;2024-01-16T02:19:06;1.50;99.90
45409;DHT22;31162;51.076;3.784;2024-01-16T02:21:53;1.40;99.90
45409;DHT22;31162;51.076;3.784;2024-01-16T02:24:20;1.40;99.90
45409;DHT22;31162;51.076;3.784;2024-01-16T02:26:46;1.50;99.90
45409;DHT22;31162;51.076;3.784;2024-01-16T02:29:12;1.40;99.90
45409;DHT22;31162;51.076;3.784;2024-01-16T02:31:38;1.40;99.90
45409;DHT22;31162;51.076;3.784;2024-01-16T02:34:04;1.40;99.90
45409;DHT22;31162;51.076;3.784;2024-01-16T02:36:30;1.30;99.90
45409;DHT22;31162;51.076;3.784;2024-01-16T02:38:56;1.30;99.90
45409;DHT22;31162;51.076;3.784;2024-01-16T02:41:21;1.30;99.90
45409;DHT22;31162;51.076;3.784;2024-01-16T02:43:47;1.30;99.90
45409;DHT22;31162;51.076;3.784;2024-01-16T02:46:16;1.30;99.90
45409;DHT22;31162;51.076;3.784;2024-01-16T02:48:42;1.30;99.90
45409;DHT22;31162;51.076;3.784;2024-01-16T02:51:08;1.50;99.90
45409;DHT22;31162;51.076;3.784;2024-01-16T02:53:34;1.50;99.90
45409;DHT22;31162;51.076;3.784;2024-01-16T02:56:00;1.50;99.90
45409;DHT22;31162;51.076;3.784;2024-01-16T02:58:30;1.50;99.90
45409;DHT22;31162;51.076;3.784;2024-01-16T03:00:56;1.50;99.90
45409;DHT22;31162;51.076;3.784;2024-01-16T03:03:23;1.50;99.90
45409;DHT22;31162;51.076;3.784;2024-01-16T03:05:50;1.50;99.90
45409;DHT22;31162;51.076;3.784;2024-01-16T03:08:15;1.50;99.90
45409;DHT22;31162;51.076;3.784;2024-01-16T03:10:41;1.50;99.90
45409;DHT22;31162;51.076;3.784;2024-01-16T03:13:07;1.50;99.90
45409;DHT22;31162;51.076;3.784;2024-01-16T03:15:32;1.50;99.90
45409;DHT22;31162;51.076;3.784;2024-01-16T03:17:59;1.60;99.90
45409;DHT22;31162;51.076;3.784;2024-01-16T03:20:25;1.70;99.90
45409;DHT22;31162;51.076;3.784;2024-01-16T03:22:51;1.50;99.90
45409;DHT22;31162;51.076;3.784;2024-01-16T03:25:17;1.50;99.90
45409;DHT22;31162;51.076;3.784;2024-01-16T03:27:43;1.50;99.90
45409;DHT22;31162;51.076;3.784;2024-01-16T03:30:10;1.50;99.90
45409;DHT22;31162;51.076;3.784;2024-01-16T03:32:36;1.60;99.90
45409;DHT22;31162;51.076;3.784;2024-01-16T03:35:03;1.60;99.90
45409;DHT22;31162;51.076;3.784;2024-01-16T03:37:28;1.40;99.90
45409;DHT22;31162;51.076;3.784;2024-01-16T03:39:54;1.50;99.90
45409;DHT22;31162;51.076;3.784;2024-01-16T03:42:20;1.60;99.90
45409;DHT22;31162;51.076;3.784;2024-01-16T03:44:46;1.60;99.90
45409;DHT22;31162;51.076;3.784;2024-01-16T03:47:12;1.60;99.90
45409;DHT22;31162;51.076;3.784;2024-01-16T03:49:38;1.60;99.90
45409;DHT22;31162;51.076;3.784;2024-01-16T03:52:04;1.60;99.90
45409;DHT22;31162;51.076;3.784;2024-01-16T03:54:29;1.50;99.90
45409;DHT22;31162;51.076;3.784;2024-01-16T03:56:55;1.50;99.90
45409;DHT22;31162;51.076;3.784;2024-01-16T03:59:21;1.50;99.90
45409;DHT22;31162;51.076;3.784;2024-01-16T04:01:47;1.40;99.90
45409;DHT22;31162;51.076;3.784;2024-01-16T04:04:15;1.50;99.90
45409;DHT22;31162;51.076;3.784;2024-01-16T04:06:40;1.40;99.90
45409;DHT22;31162;51.076;3.784;2024-01-16T04:09:07;1.30;99.90
45409;DHT22;31162;51.076;3.784;2024-01-16T04:11:35;1.20;99.90
45409;DHT22;31162;51.076;3.784;2024-01-16T04:14:01;1.20;99.90
45409;DHT22;31162;51.076;3.784;2024-01-16T04:16:27;1.20;99.90
45409;DHT22;31162;51.076;3.784;2024-01-16T04:18:53;1.30;99.90
45409;DHT22;31162;51.076;3.784;2024-01-16T04:21:19;1.40;99.90
45409;DHT22;31162;51.076;3.784;2024-01-16T04:23:45;1.40;99.90
45409;DHT22;31162;51.076;3.784;2024-01-16T04:26:10;1.40;99.90
45409;DHT22;31162;51.076;3.784;2024-01-16T04:28:36;1.40;99.90
45409;DHT22;31162;51.076;3.784;2024-01-16T04:31:04;1.40;99.90
45409;DHT22;31162;51.076;3.784;2024-01-16T04:33:30;1.30;99.90
45409;DHT22;31162;51.076;3.784;2024-01-16T04:35:56;1.30;99.90
45409;DHT22;31162;51.076;3.784;2024-01-16T04:38:22;1.20;99.90
45409;DHT22;31162;51.076;3.784;2024-01-16T04:40:50;1.30;99.90
45409;DHT22;31162;51.076;3.784;2024-01-16T04:43:16;1.20;99.90
45409;DHT22;31162;51.076;3.784;2024-01-16T04:45:41;1.30;99.90
45409;DHT22;31162;51.076;3.784;2024-01-16T04:48:07;1.30;99.90
45409;DHT22;31162;51.076;3.784;2024-01-16T04:50:35;1.30;99.90
45409;DHT22;31162;51.076;3.784;2024-01-16T04:53:02;1.30;99.90
45409;DHT22;31162;51.076;3.784;2024-01-16T04:55:28;1.40;99.90
45409;DHT22;31162;51.076;3.784;2024-01-16T04:57:55;1.40;99.90
45409;DHT22;31162;51.076;3.784;2024-01-16T05:00:21;1.40;99.90
45409;DHT22;31162;51.076;3.784;2024-01-16T05:02:46;1.40;99.90
45409;DHT22;31162;51.076;3.784;2024-01-16T05:05:13;1.20;99.90
45409;DHT22;31162;51.076;3.784;2024-01-16T05:07:38;1.20;99.90
45409;DHT22;31162;51.076;3.784;2024-01-16T05:10:05;1.20;99.90
45409;DHT22;31162;51.076;3.784;2024-01-16T05:12:31;1.30;99.90
45409;DHT22;31162;51.076;3.784;2024-01-16T05:14:57;1.20;99.90
45409;DHT22;31162;51.076;3.784;2024-01-16T05:17:23;1.20;99.90
45409;DHT22;31162;51.076;3.784;2024-01-16T05:19:49;1.20;99.90
45409;DHT22;31162;51.076;3.784;2024-01-16T05:22:14;1.10;99.90
45409;DHT22;31162;51.076;3.784;2024-01-16T05:24:40;0.90;99.90
45409;DHT22;31162;51.076;3.784;2024-01-16T05:27:06;0.80;99.90
45409;DHT22;31162;51.076;3.784;2024-01-16T05:29:32;0.60;99.90
45409;DHT22;31162;51.076;3.784;2024-01-16T05:31:57;0.70;99.90
45409;DHT22;31162;51.076;3.784;2024-01-16T05:34:23;0.70;99.90
45409;DHT22;31162;51.076;3.784;2024-01-16T05:36:49;0.80;99.90
45409;DHT22;31162;51.076;3.784;2024-01-16T05:39:15;0.70;99.90
45409;DHT22;31162;51.076;3.784;2024-01-16T05:41:40;0.70;99.90
45409;DHT22;31162;51.076;3.784;2024-01-16T05:44:06;0.70;99.90
45409;DHT22;31162;51.076;3.784;2024-01-16T05:46:32;0.70;99.90
45409;DHT22;31162;51.076;3.784;2024-01-16T05:48:58;0.60;99.90
45409;DHT22;31162;51.076;3.784;2024-01-16T05:51:25;0.60;99.90
45409;DHT22;31162;51.076;3.784;2024-01-16T05:53:50;0.60;99.90
45409;DHT22;31162;51.076;3.784;2024-01-16T05:56:16;0.70;99.90
45409;DHT22;31162;51.076;3.784;2024-01-16T05:58:42;0.80;99.90
45409;DHT22;31162;51.076;3.784;2024-01-16T06:01:07;0.80;99.90
45409;DHT22;31162;51.076;3.784;2024-01-16T06:03:33;0.80;99.90
45409;DHT22;31162;51.076;3.784;2024-01-16T06:05:59;0.70;99.90
45409;DHT22;31162;51.076;3.784;2024-01-16T06:08:25;0.80;99.90
45409;DHT22;31162;51.076;3.784;2024-01-16T06:10:50;0.90;99.90
45409;DHT22;31162;51.076;3.784;2024-01-16T06:13:18;1.00;99.90
45409;DHT22;31162;51.076;3.784;2024-01-16T06:15:44;1.00;99.90
45409;DHT22;31162;51.076;3.784;2024-01-16T06:18:10;1.00;99.90
45409;DHT22;31162;51.076;3.784;2024-01-16T06:20:35;1.00;99.90
45409;DHT22;31162;51.076;3.784;2024-01-16T06:23:01;0.90;99.90
45409;DHT22;31162;51.076;3.784;2024-01-16T06:25:27;1.00;99.90
45409;DHT22;31162;51.076;3.784;2024-01-16T06:27:52;0.90;99.90
45409;DHT22;31162;51.076;3.784;2024-01-16T06:30:18;0.80;99.90
45409;DHT22;31162;51.076;3.784;2024-01-16T06:32:43;0.90;99.90
45409;DHT22;31162;51.076;3.784;2024-01-16T06:35:09;0.90;99.90
45409;DHT22;31162;51.076;3.784;2024-01-16T06:37:35;0.90;99.90
45409;DHT22;31162;51.076;3.784;2024-01-16T06:40:01;0.90;99.90
45409;DHT22;31162;51.076;3.784;2024-01-16T06:42:28;0.90;99.90
45409;DHT22;31162;51.076;3.784;2024-01-16T06:44:53;0.80;99.90
45409;DHT22;31162;51.076;3.784;2024-01-16T06:47:19;0.80;99.90
45409;DHT22;31162;51.076;3.784;2024-01-16T06:49:45;0.90;99.90
45409;DHT22;31162;51.076;3.784;2024-01-16T06:52:10;1.00;99.90
45409;DHT22;31162;51.076;3.784;2024-01-16T06:54:36;0.90;99.90
45409;DHT22;31162;51.076;3.784;2024-01-16T06:57:01;0.90;99.90
45409;DHT22;31162;51.076;3.784;2024-01-16T06:59:28;0.90;99.90
45409;DHT22;31162;51.076;3.784;2024-01-16T07:01:53;1.00;99.90
45409;DHT22;31162;51.076;3.784;2024-01-16T07:04:20;1.10;99.90
45409;DHT22;31162;51.076;3.784;2024-01-16T07:06:46;1.10;99.90
45409;DHT22;31162;51.076;3.784;2024-01-16T07:09:12;1.20;99.90
45409;DHT22;31162;51.076;3.784;2024-01-16T07:11:38;1.20;99.90
45409;DHT22;31162;51.076;3.784;2024-01-16T07:14:11;1.10;99.90
45409;DHT22;31162;51.076;3.784;2024-01-16T07:16:37;1.10;99.90
45409;DHT22;31162;51.076;3.784;2024-01-16T07:19:03;1.20;99.90
45409;DHT22;31162;51.076;3.784;2024-01-16T07:21:29;1.20;99.90
45409;DHT22;31162;51.076;3.784;2024-01-16T07:23:55;1.30;99.90
45409;DHT22;31162;51.076;3.784;2024-01-16T07:26:21;1.30;99.90
45409;DHT22;31162;51.076;3.784;2024-01-16T07:28:47;1.20;99.90
45409;DHT22;31162;51.076;3.784;2024-01-16T07:31:15;1.20;99.90
45409;DHT22;31162;51.076;3.784;2024-01-16T07:33:44;1.20;99.90
45409;DHT22;31162;51.076;3.784;2024-01-16T07:36:10;1.10;99.90
45409;DHT22;31162;51.076;3.784;2024-01-16T07:38:36;1.10;99.90
45409;DHT22;31162;51.076;3.784;2024-01-16T07:41:02;1.20;99.90
45409;DHT22;31162;51.076;3.784;2024-01-16T07:43:28;1.30;99.90
45409;DHT22;31162;51.076;3.784;2024-01-16T07:45:55;1.40;99.90
45409;DHT22;31162;51.076;3.784;2024-01-16T07:48:21;1.40;99.90
45409;DHT22;31162;51.076;3.784;2024-01-16T07:50:48;1.40;99.90
45409;DHT22;31162;51.076;3.784;2024-01-16T07:53:15;1.40;99.90
45409;DHT22;31162;51.076;3.784;2024-01-16T07:55:42;1.40;99.90
45409;DHT22;31162;51.076;3.784;2024-01-16T07:58:09;1.40;99.90
45409;DHT22;31162;51.076;3.784;2024-01-16T08:00:35;1.60;99.90
45409;DHT22;31162;51.076;3.784;2024-01-16T08:03:01;1.60;99.90
45409;DHT22;31162;51.076;3.784;2024-01-16T08:05:26;1.50;99.90
45409;DHT22;31162;51.076;3.784;2024-01-16T08:07:53;1.50;99.90
45409;DHT22;31162;51.076;3.784;2024-01-16T08:10:19;1.50;99.90
45409;DHT22;31162;51.076;3.784;2024-01-16T08:12:45;1.50;99.90
45409;DHT22;31162;51.076;3.784;2024-01-16T08:15:11;1.60;99.90
45409;DHT22;31162;51.076;3.784;2024-01-16T08:17:36;1.70;99.90
45409;DHT22;31162;51.076;3.784;2024-01-16T08:20:02;1.70;99.90
45409;DHT22;31162;51.076;3.784;2024-01-16T08:22:28;1.60;99.90
45409;DHT22;31162;51.076;3.784;2024-01-16T08:24:54;1.70;99.90
45409;DHT22;31162;51.076;3.784;2024-01-16T08:27:20;1.70;99.90
45409;DHT22;31162;51.076;3.784;2024-01-16T08:29:46;1.80;99.90
45409;DHT22;31162;51.076;3.784;2024-01-16T08:32:15;1.70;99.90
45409;DHT22;31162;51.076;3.784;2024-01-16T08:34:41;1.90;99.90
45409;DHT22;31162;51.076;3.784;2024-01-16T08:37:07;1.90;99.90
45409;DHT22;31162;51.076;3.784;2024-01-16T08:39:32;1.90;99.90
45409;DHT22;31162;51.076;3.784;2024-01-16T08:41:59;2.00;99.90
45409;DHT22;31162;51.076;3.784;2024-01-16T08:44:27;1.80;99.90
45409;DHT22;31162;51.076;3.784;2024-01-16T08:46:53;1.80;99.90
45409;DHT22;31162;51.076;3.784;2024-01-16T08:49:18;1.80;99.90
45409;DHT22;31162;51.076;3.784;2024-01-16T08:51:44;1.80;99.90
45409;DHT22;31162;51.076;3.784;2024-01-16T08:54:10;1.80;99.90
45409;DHT22;31162;51.076;3.784;2024-01-16T08:56:35;1.80;99.90
45409;DHT22;31162;51.076;3.784;2024-01-16T08:59:02;1.80;99.90
45409;DHT22;31162;51.076;3.784;2024-01-16T09:01:27;1.80;99.90
45409;DHT22;31162;51.076;3.784;2024-01-16T09:03:53;1.80;99.90
45409;DHT22;31162;51.076;3.784;2024-01-16T09:06:19;1.80;99.90
45409;DHT22;31162;51.076;3.784;2024-01-16T09:08:44;1.90;99.90
45409;DHT22;31162;51.076;3.784;2024-01-16T09:11:10;1.80;99.90
45409;DHT22;31162;51.076;3.784;2024-01-16T09:13:37;1.80;99.90
45409;DHT22;31162;51.076;3.784;2024-01-16T09:16:03;1.80;99.90
45409;DHT22;31162;51.076;3.784;2024-01-16T09:18:30;1.90;99.90
45409;DHT22;31162;51.076;3.784;2024-01-16T09:20:55;1.90;99.90
45409;DHT22;31162;51.076;3.784;2024-01-16T09:23:22;1.80;99.90
45409;DHT22;31162;51.076;3.784;2024-01-16T09:25:48;2.00;99.90
45409;DHT22;31162;51.076;3.784;2024-01-16T09:28:13;1.90;99.90
45409;DHT22;31162;51.076;3.784;2024-01-16T09:30:41;1.90;99.90
45409;DHT22;31162;51.076;3.784;2024-01-16T09:33:07;1.90;99.90
45409;DHT22;31162;51.076;3.784;2024-01-16T09:35:35;1.90;99.90
45409;DHT22;31162;51.076;3.784;2024-01-16T09:38:00;2.00;99.90
45409;DHT22;31162;51.076;3.784;2024-01-16T09:40:26;2.10;99.90
45409;DHT22;31162;51.076;3.784;2024-01-16T09:42:52;2.10;99.90
45409;DHT22;31162;51.076;3.784;2024-01-16T09:45:21;2.00;99.90
45409;DHT22;31162;51.076;3.784;2024-01-16T09:47:50;2.00;99.90
45409;DHT22;31162;51.076;3.784;2024-01-16T09:50:16;2.00;99.90
45409;DHT22;31162;51.076;3.784;2024-01-16T09:52:48;1.90;99.90
45409;DHT22;31162;51.076;3.784;2024-01-16T09:55:15;1.90;99.90
45409;DHT22;31162;51.076;3.784;2024-01-16T09:57:41;1.90;99.90
45409;DHT22;31162;51.076;3.784;2024-01-16T10:00:09;2.00;99.90
45409;DHT22;31162;51.076;3.784;2024-01-16T10:02:41;2.10;99.90
45409;DHT22;31162;51.076;3.784;2024-01-16T10:05:08;2.10;99.90
45409;DHT22;31162;51.076;3.784;2024-01-16T10:07:41;2.10;99.90
45409;DHT22;31162;51.076;3.784;2024-01-16T10:10:11;2.00;99.90
45409;DHT22;31162;51.076;3.784;2024-01-16T10:12:38;2.10;99.90
45409;DHT22;31162;51.076;3.784;2024-01-16T10:15:07;2.20;99.90
45409;DHT22;31162;51.076;3.784;2024-01-16T10:17:39;2.50;99.90
45409;DHT22;31162;51.076;3.784;2024-01-16T10:20:06;3.30;99.90
45409;DHT22;31162;51.076;3.784;2024-01-16T10:22:32;4.00;99.90
45409;DHT22;31162;51.076;3.784;2024-01-16T10:25:05;4.40;99.90
45409;DHT22;31162;51.076;3.784;2024-01-16T10:27:31;4.80;99.90
45409;DHT22;31162;51.076;3.784;2024-01-16T10:29:58;5.30;99.90
45409;DHT22;31162;51.076;3.784;2024-01-16T10:32:31;5.70;99.90
45409;DHT22;31162;51.076;3.784;2024-01-16T10:35:08;6.30;99.90
45409;DHT22;31162;51.076;3.784;2024-01-16T10:37:50;6.60;99.90
45409;DHT22;31162;51.076;3.784;2024-01-16T10:40:20;6.80;99.90
45409;DHT22;31162;51.076;3.784;2024-01-16T10:42:57;6.60;99.90
45409;DHT22;31162;51.076;3.784;2024-01-16T10:45:23;6.80;99.90
45409;DHT22;31162;51.076;3.784;2024-01-16T10:48:01;7.10;99.90
45409;DHT22;31162;51.076;3.784;2024-01-16T10:50:28;7.40;99.90
45409;DHT22;31162;51.076;3.784;2024-01-16T10:52:54;7.30;99.90
45409;DHT22;31162;51.076;3.784;2024-01-16T10:55:24;7.30;99.90
45409;DHT22;31162;51.076;3.784;2024-01-16T10:57:50;7.00;99.90
45409;DHT22;31162;51.076;3.784;2024-01-16T11:00:20;6.80;99.90
45409;DHT22;31162;51.076;3.784;2024-01-16T11:03:07;6.90;99.90
45409;DHT22;31162;51.076;3.784;2024-01-16T11:05:35;6.70;99.90
45409;DHT22;31162;51.076;3.784;2024-01-16T11:08:03;6.70;99.90
45409;DHT22;31162;51.076;3.784;2024-01-16T11:10:32;6.90;99.90
45409;DHT22;31162;51.076;3.784;2024-01-16T11:13:01;6.80;99.90
45409;DHT22;31162;51.076;3.784;2024-01-16T11:15:28;6.40;99.90
45409;DHT22;31162;51.076;3.784;2024-01-16T11:17:55;6.10;99.90
45409;DHT22;31162;51.076;3.784;2024-01-16T11:20:22;6.30;99.90
45409;DHT22;31162;51.076;3.784;2024-01-16T11:22:49;6.50;99.90
45409;DHT22;31162;51.076;3.784;2024-01-16T11:25:17;7.10;99.90
45409;DHT22;31162;51.076;3.784;2024-01-16T11:27:45;7.60;99.90
45409;DHT22;31162;51.076;3.784;2024-01-16T11:30:12;8.10;99.90
45409;DHT22;31162;51.076;3.784;2024-01-16T11:32:39;8.50;99.90
45409;DHT22;31162;51.076;3.784;2024-01-16T11:35:10;8.90;99.90
45409;DHT22;31162;51.076;3.784;2024-01-16T11:37:41;9.00;99.90
45409;DHT22;31162;51.076;3.784;2024-01-16T11:42:43;9.40;99.90
45409;DHT22;31162;51.076;3.784;2024-01-16T11:48:15;9.50;99.90
45409;DHT22;31162;51.076;3.784;2024-01-16T11:50:41;9.60;99.90
45409;DHT22;31162;51.076;3.784;2024-01-16T11:53:08;9.70;99.90
45409;DHT22;31162;51.076;3.784;2024-01-16T11:55:35;9.90;99.90
45409;DHT22;31162;51.076;3.784;2024-01-16T12:00:52;9.70;99.90
45409;DHT22;31162;51.076;3.784;2024-01-16T12:03:20;9.60;99.90
45409;DHT22;31162;51.076;3.784;2024-01-16T12:05:56;9.30;99.90
45409;DHT22;31162;51.076;3.784;2024-01-16T12:08:22;8.70;99.90
45409;DHT22;31162;51.076;3.784;2024-01-16T12:10:48;8.30;99.90
45409;DHT22;31162;51.076;3.784;2024-01-16T12:13:14;8.30;99.90
45409;DHT22;31162;51.076;3.784;2024-01-16T12:15:40;8.40;99.90
45409;DHT22;31162;51.076;3.784;2024-01-16T12:18:07;8.60;99.90
45409;DHT22;31162;51.076;3.784;2024-01-16T12:20:34;8.90;99.90
45409;DHT22;31162;51.076;3.784;2024-01-16T12:23:05;9.00;99.90
45409;DHT22;31162;51.076;3.784;2024-01-16T12:25:35;9.20;99.90
45409;DHT22;31162;51.076;3.784;2024-01-16T12:28:05;9.00;99.90
45409;DHT22;31162;51.076;3.784;2024-01-16T12:30:32;8.50;99.90
45409;DHT22;31162;51.076;3.784;2024-01-16T12:33:12;7.90;99.90
45409;DHT22;31162;51.076;3.784;2024-01-16T12:35:42;7.20;99.90
45409;DHT22;31162;51.076;3.784;2024-01-16T12:38:11;6.80;99.90
45409;DHT22;31162;51.076;3.784;2024-01-16T12:40:48;6.40;99.90
45409;DHT22;31162;51.076;3.784;2024-01-16T12:43:17;6.10;99.90
45409;DHT22;31162;51.076;3.784;2024-01-16T12:45:44;5.80;99.90
45409;DHT22;31162;51.076;3.784;2024-01-16T12:48:10;5.60;99.90
45409;DHT22;31162;51.076;3.784;2024-01-16T12:50:36;5.50;99.90
45409;DHT22;31162;51.076;3.784;2024-01-16T12:55:29;5.40;99.90
45409;DHT22;31162;51.076;3.784;2024-01-16T13:00:38;5.30;99.90
45409;DHT22;31162;51.076;3.784;2024-01-16T13:03:05;5.20;99.90
45409;DHT22;31162;51.076;3.784;2024-01-16T13:05:30;5.10;99.90
45409;DHT22;31162;51.076;3.784;2024-01-16T13:08:01;4.90;99.90
45409;DHT22;31162;51.076;3.784;2024-01-16T13:10:30;4.80;99.90
45409;DHT22;31162;51.076;3.784;2024-01-16T13:13:16;4.70;99.90
45409;DHT22;31162;51.076;3.784;2024-01-16T13:15:45;4.70;99.90
45409;DHT22;31162;51.076;3.784;2024-01-16T13:18:25;4.70;99.90
45409;DHT22;31162;51.076;3.784;2024-01-16T13:20:52;4.80;99.90
45409;DHT22;31162;51.076;3.784;2024-01-16T13:23:19;4.80;99.90
45409;DHT22;31162;51.076;3.784;2024-01-16T13:25:47;4.70;99.90
45409;DHT22;31162;51.076;3.784;2024-01-16T13:28:17;4.80;99.90
45409;DHT22;31162;51.076;3.784;2024-01-16T13:30:43;4.80;99.90
45409;DHT22;31162;51.076;3.784;2024-01-16T13:33:09;4.90;99.90
45409;DHT22;31162;51.076;3.784;2024-01-16T13:35:37;4.90;99.90
45409;DHT22;31162;51.076;3.784;2024-01-16T13:38:05;4.90;99.90
45409;DHT22;31162;51.076;3.784;2024-01-16T13:40:31;4.80;99.90
45409;DHT22;31162;51.076;3.784;2024-01-16T13:42:56;4.90;99.90
45409;DHT22;31162;51.076;3.784;2024-01-16T13:45:22;4.90;99.90
45409;DHT22;31162;51.076;3.784;2024-01-16T13:47:48;4.90;99.90
45409;DHT22;31162;51.076;3.784;2024-01-16T13:50:14;4.90;99.90
45409;DHT22;31162;51.076;3.784;2024-01-16T13:52:40;5.00;99.90
45409;DHT22;31162;51.076;3.784;2024-01-16T13:55:06;5.00;99.90
45409;DHT22;31162;51.076;3.784;2024-01-16T13:57:32;5.00;99.90
45409;DHT22;31162;51.076;3.784;2024-01-16T14:00:01;5.00;99.90
45409;DHT22;31162;51.076;3.784;2024-01-16T14:02:28;4.90;99.90
45409;DHT22;31162;51.076;3.784;2024-01-16T14:04:53;4.90;99.90
45409;DHT22;31162;51.076;3.784;2024-01-16T14:07:19;4.90;99.90
45409;DHT22;31162;51.076;3.784;2024-01-16T14:09:44;4.80;99.90
45409;DHT22;31162;51.076;3.784;2024-01-16T14:12:10;4.90;99.90
45409;DHT22;31162;51.076;3.784;2024-01-16T14:14:36;4.90;99.90
45409;DHT22;31162;51.076;3.784;2024-01-16T14:17:05;5.10;99.90
45409;DHT22;31162;51.076;3.784;2024-01-16T14:19:30;5.10;99.90
45409;DHT22;31162;51.076;3.784;2024-01-16T14:21:56;5.10;99.90
45409;DHT22;31162;51.076;3.784;2024-01-16T14:24:22;5.00;99.90
45409;DHT22;31162;51.076;3.784;2024-01-16T14:26:48;4.90;99.90
45409;DHT22;31162;51.076;3.784;2024-01-16T14:29:14;4.90;99.90
45409;DHT22;31162;51.076;3.784;2024-01-16T14:31:40;4.80;99.90
45409;DHT22;31162;51.076;3.784;2024-01-16T14:34:12;4.80;99.90
45409;DHT22;31162;51.076;3.784;2024-01-16T14:36:41;4.60;99.90
45409;DHT22;31162;51.076;3.784;2024-01-16T14:39:07;4.50;99.90
45409;DHT22;31162;51.076;3.784;2024-01-16T14:41:39;4.50;99.90
45409;DHT22;31162;51.076;3.784;2024-01-16T14:44:04;4.50;99.90
45409;DHT22;31162;51.076;3.784;2024-01-16T14:46:31;4.50;99.90
45409;DHT22;31162;51.076;3.784;2024-01-16T14:48:58;4.60;99.90
45409;DHT22;31162;51.076;3.784;2024-01-16T14:51:24;4.50;99.90
45409;DHT22;31162;51.076;3.784;2024-01-16T14:53:51;4.50;99.90
45409;DHT22;31162;51.076;3.784;2024-01-16T14:56:17;4.50;99.90
45409;DHT22;31162;51.076;3.784;2024-01-16T14:58:43;4.50;99.90
45409;DHT22;31162;51.076;3.784;2024-01-16T15:01:09;4.40;99.90
45409;DHT22;31162;51.076;3.784;2024-01-16T15:03:36;4.40;99.90
45409;DHT22;31162;51.076;3.784;2024-01-16T15:06:02;4.40;99.90
45409;DHT22;31162;51.076;3.784;2024-01-16T15:08:28;4.40;99.90
45409;DHT22;31162;51.076;3.784;2024-01-16T15:10:56;4.30;99.90
45409;DHT22;31162;51.076;3.784;2024-01-16T15:13:25;4.30;99.90
45409;DHT22;31162;51.076;3.784;2024-01-16T15:15:51;4.30;99.90
45409;DHT22;31162;51.076;3.784;2024-01-16T15:18:19;4.10;99.90
45409;DHT22;31162;51.076;3.784;2024-01-16T15:20:44;4.10;99.90
45409;DHT22;31162;51.076;3.784;2024-01-16T15:23:11;4.10;99.90
45409;DHT22;31162;51.076;3.784;2024-01-16T15:25:37;3.90;99.90
45409;DHT22;31162;51.076;3.784;2024-01-16T15:28:04;3.80;99.90
45409;DHT22;31162;51.076;3.784;2024-01-16T15:30:30;3.90;99.90
45409;DHT22;31162;51.076;3.784;2024-01-16T15:33:01;3.90;99.90
45409;DHT22;31162;51.076;3.784;2024-01-16T15:35:29;3.80;99.90
45409;DHT22;31162;51.076;3.784;2024-01-16T15:37:55;3.70;99.90
45409;DHT22;31162;51.076;3.784;2024-01-16T15:40:21;3.60;99.90
45409;DHT22;31162;51.076;3.784;2024-01-16T15:42:47;3.60;99.90
45409;DHT22;31162;51.076;3.784;2024-01-16T15:45:13;3.50;99.90
45409;DHT22;31162;51.076;3.784;2024-01-16T15:47:40;3.50;99.90
45409;DHT22;31162;51.076;3.784;2024-01-16T15:50:07;3.50;99.90
45409;DHT22;31162;51.076;3.784;2024-01-16T15:52:33;3.40;99.90
45409;DHT22;31162;51.076;3.784;2024-01-16T15:55:00;3.40;99.90